Terminal Aerodrome Forecast
Issued by NWS

Home | Current Version | Previous Version | Text Only | Print | Product List | Glossary On
Versions: 1 2 3 4 5 6 7 8 9 10 11 12 13 14 15 16 17 18 19 20 21 22 23 24 25 26
631
FTUS45 KBOU 061740
TAFAPA
TAF
KAPA 061740Z 0618/0718 20008KT P6SM FEW100 SCT150 BKN220
     FM062200 23010KT P6SM SCT140 BKN220
     FM070300 21010KT P6SM FEW140 BKN220
     FM071500 VRB06KT P6SM FEW140 SCT220=

USA.gov is the U.S. government's official web portal to all federal, state and local government web resources and services.